createdAt,value
2022-10-29T00:03:40.958Z,12.51
2022-10-29T00:13:45.752Z,12.54
2022-10-29T00:23:50.106Z,12.56
2022-10-29T00:33:55.267Z,12.63
2022-10-29T00:44:23.316Z,12.67
2022-10-29T00:54:28.700Z,12.67
2022-10-29T01:04:32.135Z,12.65
2022-10-29T01:15:07.236Z,12.60
2022-10-29T01:25:35.617Z,12.54
2022-10-29T01:36:01.538Z,12.51
2022-10-29T01:46:33.636Z,12.48
2022-10-29T01:56:37.000Z,12.52
2022-10-29T02:06:52.056Z,12.60
2022-10-29T02:16:56.919Z,12.68
2022-10-29T02:27:00.367Z,12.74
2022-10-29T02:37:03.610Z,12.82
2022-10-29T02:47:06.785Z,12.86
2022-10-29T02:57:09.997Z,12.91
2022-10-29T03:07:13.531Z,13.00
2022-10-29T03:17:16.783Z,13.06
2022-10-29T03:27:20.098Z,13.12
2022-10-29T03:37:23.511Z,13.16
2022-10-29T03:47:27.443Z,13.21
2022-10-29T03:57:30.926Z,13.27
2022-10-29T04:07:34.278Z,13.27
2022-10-29T04:17:37.590Z,13.25
2022-10-29T04:38:12.380Z,13.12
2022-10-29T04:48:15.643Z,13.07
2022-10-29T04:58:20.520Z,13.05
2022-10-29T05:14:54.331Z,13.06
2022-10-29T05:24:57.530Z,12.96
2022-10-29T05:35:00.801Z,12.97
2022-10-29T05:45:04.421Z,12.89
2022-10-29T05:55:08.755Z,12.90
2022-10-29T06:05:15.400Z,12.97
2022-10-29T06:15:19.653Z,13.03
2022-10-29T06:25:23.601Z,13.16
2022-10-29T06:35:27.710Z,13.26
2022-10-29T06:45:32.247Z,13.42
2022-10-29T06:55:36.203Z,13.57
2022-10-29T07:05:39.522Z,13.72
2022-10-29T07:15:42.977Z,14.01
2022-10-29T07:25:46.269Z,14.40
2022-10-29T07:35:49.534Z,14.77
2022-10-29T07:45:52.927Z,14.80
2022-10-29T07:55:56.576Z,14.65
2022-10-29T08:05:59.757Z,14.44
2022-10-29T08:16:03.056Z,14.37
2022-10-29T08:26:06.502Z,14.29
2022-10-29T08:36:09.839Z,14.28
2022-10-29T08:46:35.733Z,14.37
2022-10-29T08:56:44.639Z,14.55
2022-10-29T09:07:09.203Z,14.68
2022-10-29T09:17:31.017Z,14.91
2022-10-29T09:28:12.191Z,15.21
2022-10-29T09:38:19.562Z,15.44
2022-10-29T09:48:31.855Z,15.78
2022-10-29T09:58:41.958Z,15.80
2022-10-29T10:09:02.101Z,15.82
2022-10-29T10:19:26.432Z,15.98
2022-10-29T10:29:29.696Z,16.10
2022-10-29T10:39:44.091Z,16.30
2022-10-29T10:49:47.612Z,16.34
2022-10-29T11:00:03.590Z,16.37
2022-10-29T11:10:12.502Z,16.34
2022-10-29T11:20:27.391Z,16.49
2022-10-29T11:30:39.104Z,16.54
2022-10-29T11:40:54.564Z,16.54
2022-10-29T11:51:08.258Z,16.68
2022-10-29T12:01:46.743Z,16.75
2022-10-29T12:11:53.021Z,16.79
2022-10-29T12:22:13.306Z,16.82
2022-10-29T12:32:33.028Z,16.68
2022-10-29T12:42:36.557Z,16.60
2022-10-29T12:52:55.265Z,16.41
2022-10-29T13:02:59.125Z,16.28
2022-10-29T13:13:18.435Z,16.13
2022-10-29T13:23:24.572Z,15.93
2022-10-29T13:33:28.449Z,15.77
2022-10-29T13:43:33.541Z,15.59
2022-10-29T13:53:47.446Z,15.49
2022-10-29T14:04:04.416Z,15.33
2022-10-29T14:14:23.052Z,15.03
2022-10-29T14:24:26.278Z,14.76
2022-10-29T14:34:29.719Z,14.49
2022-10-29T14:44:33.661Z,14.20
2022-10-29T14:54:41.548Z,13.89
2022-10-29T15:04:50.454Z,13.57
2022-10-29T15:14:54.730Z,13.34
2022-10-29T15:24:59.783Z,13.15
2022-10-29T15:35:09.763Z,12.94
2022-10-29T15:55:27.104Z,12.64
2022-10-29T16:05:30.796Z,12.54
2022-10-29T16:15:34.004Z,12.48
2022-10-29T16:25:37.956Z,12.46
2022-10-29T16:35:41.333Z,12.40
2022-10-29T16:45:44.927Z,12.35
2022-10-29T16:55:48.178Z,12.30
2022-10-29T17:05:51.423Z,12.23
2022-10-29T17:15:54.782Z,12.21
2022-10-29T17:25:58.989Z,12.17
2022-10-29T17:36:06.607Z,12.16
2022-10-29T17:46:09.851Z,12.10
2022-10-29T17:56:13.177Z,12.03
2022-10-29T18:06:17.164Z,11.92
2022-10-29T18:16:22.479Z,11.83
2022-10-29T18:26:31.270Z,11.77
2022-10-29T18:36:39.324Z,11.65
2022-10-29T18:46:42.576Z,11.62
2022-10-29T18:56:45.991Z,11.57
2022-10-29T19:06:49.442Z,11.52
2022-10-29T19:16:53.167Z,11.50
2022-10-29T19:26:56.426Z,11.44
2022-10-29T19:37:02.505Z,11.44
2022-10-29T19:47:05.882Z,11.45
2022-10-29T19:57:09.702Z,11.46
2022-10-29T20:07:12.940Z,11.43
2022-10-29T20:17:18.628Z,11.43
2022-10-29T20:27:22.157Z,11.42
2022-10-29T20:37:26.015Z,11.38
2022-10-29T20:47:29.342Z,11.39
2022-10-29T20:57:32.616Z,11.38
2022-10-29T21:07:35.961Z,11.36
2022-10-29T21:17:40.784Z,11.31
2022-10-29T21:27:44.002Z,11.26
2022-10-29T21:37:47.269Z,11.21
2022-10-29T21:47:50.492Z,11.05
2022-10-29T21:57:53.875Z,10.88
2022-10-29T22:07:58.447Z,10.69
2022-10-29T22:18:02.243Z,10.55
2022-10-29T22:28:05.949Z,10.43
2022-10-29T22:38:09.426Z,10.30
2022-10-29T22:48:12.667Z,10.21
2022-10-29T22:58:16.054Z,10.06
2022-10-29T23:08:19.272Z,10.00
2022-10-29T23:18:22.497Z,9.95
2022-10-29T23:28:25.870Z,9.91
2022-10-29T23:38:29.629Z,9.86
2022-10-29T23:48:32.867Z,9.82
2022-10-29T23:58:36.486Z,9.81
